Time;durP1;ratioP1;P1;durP2;ratioP2;P2;SDS_P1;SDS_P2;PMS_P1;PMS_P2;Temp;Humidity;BMP_temperature;BMP_pressure;BME280_temperature;BME280_humidity;BME280_pressure;Samples;Min_cycle;Max_cycle;Signal;HPM_P1;HPM_P2
2023/08/02 00:01:29;;;;;;;5.37;2.17;;;19.20;99.90;;;;;;5011875;28;20532;-54
2023/08/02 00:03:57;;;;;;;3.50;2.20;;;19.30;99.90;;;;;;5011919;28;20901;-54
2023/08/02 00:06:24;;;;;;;3.37;2.53;;;18.90;99.90;;;;;;5011835;28;20437;-55
2023/08/02 00:08:50;;;;;;;3.70;2.43;;;19.10;99.90;;;;;;5012191;28;20413;-54
2023/08/02 00:11:17;;;;;;;5.77;2.60;;;19.10;99.90;;;;;;5010528;28;20448;-53
2023/08/02 00:13:44;;;;;;;4.43;2.47;;;19.00;99.90;;;;;;5015813;28;20519;-55
2023/08/02 00:16:10;;;;;;;4.70;2.70;;;18.90;99.90;;;;;;5016207;28;20801;-53
2023/08/02 00:18:37;;;;;;;3.33;2.20;;;18.60;99.90;;;;;;5015344;28;20443;-53
2023/08/02 00:21:05;;;;;;;4.13;2.40;;;18.60;99.90;;;;;;5015657;28;20435;-52
2023/08/02 00:23:32;;;;;;;5.93;2.73;;;18.90;99.90;;;;;;5015610;28;20452;-53
2023/08/02 00:25:58;;;;;;;5.50;2.00;;;18.90;99.90;;;;;;5015615;28;20407;-54
2023/08/02 00:28:25;;;;;;;3.17;2.27;;;18.70;99.90;;;;;;5015294;28;20443;-54
2023/08/02 00:30:51;;;;;;;3.53;2.17;;;19.10;99.90;;;;;;5014142;28;20522;-52
2023/08/02 00:33:18;;;;;;;3.90;2.53;;;18.90;99.90;;;;;;5015204;28;20479;-55
2023/08/02 00:35:46;;;;;;;3.83;2.50;;;19.10;99.90;;;;;;5014100;28;20525;-53
2023/08/02 00:38:14;;;;;;;4.70;2.47;;;18.40;99.90;;;;;;5013729;28;20456;-54
2023/08/02 00:40:41;;;;;;;4.77;2.30;;;18.90;99.90;;;;;;5015444;28;20451;-54
2023/08/02 00:43:08;;;;;;;3.83;2.33;;;18.90;99.90;;;;;;5015123;28;20539;-53
2023/08/02 00:45:36;;;;;;;5.27;3.03;;;18.90;99.90;;;;;;5015253;28;20436;-53
2023/08/02 00:48:03;;;;;;;4.73;2.10;;;18.70;99.90;;;;;;5013550;28;20453;-54
2023/08/02 00:50:32;;;;;;;3.20;2.60;;;19.00;99.90;;;;;;5014134;28;20440;-53
2023/08/02 00:52:59;;;;;;;5.23;2.70;;;19.10;99.90;;;;;;5014993;28;21013;-53
2023/08/02 00:55:27;;;;;;;4.23;2.47;;;18.60;99.90;;;;;;5013758;28;20452;-54
2023/08/02 00:57:54;;;;;;;4.87;2.40;;;18.40;99.90;;;;;;5014667;28;20444;-53
2023/08/02 01:00:21;;;;;;;3.87;1.90;;;18.90;99.90;;;;;;5015506;28;20415;-59
2023/08/02 01:02:48;;;;;;;5.50;2.63;;;18.40;99.90;;;;;;5014706;28;20458;-52
2023/08/02 01:05:15;;;;;;;4.60;2.80;;;18.50;99.90;;;;;;5014893;28;20435;-52
2023/08/02 01:07:48;;;;;;;6.17;2.13;;;18.50;99.90;;;;;;5014437;28;20443;-52
2023/08/02 01:10:21;;;;;;;5.67;2.10;;;18.70;99.90;;;;;;5014780;28;20432;-51
2023/08/02 01:12:51;;;;;;;3.73;2.07;;;18.10;99.90;;;;;;5014675;28;20479;-53
2023/08/02 01:15:18;;;;;;;4.83;2.33;;;18.10;99.90;;;;;;5013361;28;20975;-54
2023/08/02 01:17:46;;;;;;;2.97;2.40;;;18.80;99.90;;;;;;5014221;28;20503;-54
2023/08/02 01:20:14;;;;;;;4.93;2.10;;;18.80;99.90;;;;;;5013317;28;20460;-53
2023/08/02 01:22:41;;;;;;;5.43;2.00;;;18.70;99.90;;;;;;5014508;28;20990;-53
2023/08/02 01:25:09;;;;;;;7.50;2.27;;;18.20;99.90;;;;;;5013749;28;20455;-55
2023/08/02 01:27:40;;;;;;;2.80;2.00;;;18.40;99.90;;;;;;5014192;28;20440;-55
2023/08/02 01:30:12;;;;;;;5.40;2.50;;;18.50;99.90;;;;;;5014405;28;20440;-53
2023/08/02 01:32:39;;;;;;;3.80;2.43;;;18.40;99.90;;;;;;5012870;28;20483;-53
2023/08/02 01:35:07;;;;;;;3.60;2.33;;;18.70;99.90;;;;;;5014289;28;20432;-54
2023/08/02 01:37:35;;;;;;;3.27;2.50;;;18.40;99.90;;;;;;5014350;28;20949;-54
2023/08/02 01:40:03;;;;;;;4.60;2.50;;;18.70;99.90;;;;;;5012947;28;20470;-53
2023/08/02 01:42:30;;;;;;;6.70;2.97;;;18.70;99.90;;;;;;5013913;28;20453;-54
2023/08/02 01:44:57;;;;;;;4.30;2.00;;;18.70;99.90;;;;;;5014387;28;20414;-53
2023/08/02 01:47:24;;;;;;;3.70;2.33;;;18.70;99.90;;;;;;5012399;28;20567;-55
2023/08/02 01:49:51;;;;;;;5.03;2.20;;;18.70;99.90;;;;;;5012702;28;20966;-53
2023/08/02 01:52:18;;;;;;;3.80;2.47;;;18.60;99.90;;;;;;5013914;28;20479;-54
2023/08/02 01:54:46;;;;;;;4.93;2.50;;;18.70;99.90;;;;;;5012662;28;20462;-53
2023/08/02 01:57:13;;;;;;;5.97;2.20;;;18.80;99.90;;;;;;5013563;28;20443;-53
2023/08/02 01:59:39;;;;;;;3.90;2.07;;;18.40;99.90;;;;;;5012640;28;20540;-52
2023/08/02 02:02:06;;;;;;;7.43;2.27;;;18.40;99.90;;;;;;5012363;28;20470;-54
2023/08/02 02:04:32;;;;;;;6.67;2.80;;;18.70;99.90;;;;;;5013809;28;20432;-53
2023/08/02 02:07:01;;;;;;;8.77;2.40;;;18.80;99.90;;;;;;5013466;28;20414;-52
2023/08/02 02:09:28;;;;;;;4.73;2.00;;;18.80;99.90;;;;;;5013876;28;20406;-52
2023/08/02 02:11:56;;;;;;;3.83;2.27;;;18.50;99.90;;;;;;5012415;28;20567;-54
2023/08/02 02:14:22;;;;;;;4.47;2.40;;;18.70;99.90;;;;;;5012324;28;20447;-55
2023/08/02 02:16:49;;;;;;;3.47;2.27;;;18.60;99.90;;;;;;5013065;28;20444;-53
2023/08/02 02:19:15;;;;;;;4.90;2.60;;;18.80;99.90;;;;;;5012127;28;20454;-53
2023/08/02 02:21:42;;;;;;;5.83;3.03;;;18.80;99.90;;;;;;5012091;28;20471;-52
2023/08/02 02:24:09;;;;;;;4.00;1.80;;;18.70;99.90;;;;;;5013421;28;20974;-54
2023/08/02 02:26:36;;;;;;;5.97;2.93;;;18.80;99.90;;;;;;5011914;28;20459;-52
2023/08/02 02:29:04;;;;;;;5.33;2.80;;;18.70;99.90;;;;;;5012171;28;20456;-55
2023/08/02 02:31:31;;;;;;;4.20;2.60;;;18.30;99.90;;;;;;5011748;28;20492;-55
2023/08/02 02:33:57;;;;;;;4.63;2.80;;;18.70;99.90;;;;;;5013313;28;20487;-55
2023/08/02 02:36:24;;;;;;;5.93;3.07;;;18.30;99.90;;;;;;5013166;28;20436;-54
2023/08/02 02:38:52;;;;;;;4.33;3.17;;;18.60;99.90;;;;;;5013066;28;20432;-53
2023/08/02 02:41:19;;;;;;;5.00;2.60;;;18.50;99.90;;;;;;5013215;28;20441;-55
2023/08/02 02:43:46;;;;;;;3.13;2.43;;;18.70;99.90;;;;;;5012147;28;20423;-55
2023/08/02 02:46:13;;;;;;;3.87;2.57;;;18.70;99.90;;;;;;5013033;28;20898;-54
2023/08/02 02:48:40;;;;;;;7.20;2.80;;;18.60;99.90;;;;;;5012644;28;20498;-52
2023/08/02 02:51:07;;;;;;;5.70;3.30;;;18.60;99.90;;;;;;5012857;28;20772;-53
2023/08/02 02:53:33;;;;;;;4.90;2.30;;;18.50;99.90;;;;;;5012763;28;20491;-54
2023/08/02 02:56:00;;;;;;;5.90;2.60;;;18.20;99.90;;;;;;5011512;28;20422;-53
2023/08/02 02:58:26;;;;;;;3.93;2.40;;;18.50;99.90;;;;;;5012449;28;20954;-54
2023/08/02 03:00:53;;;;;;;6.63;2.73;;;18.40;99.90;;;;;;5012814;28;20794;-53
2023/08/02 03:03:21;;;;;;;5.97;2.33;;;18.60;99.90;;;;;;5012581;28;20455;-53
2023/08/02 03:05:48;;;;;;;7.03;3.20;;;18.60;99.90;;;;;;5012593;28;20444;-53
2023/08/02 03:08:14;;;;;;;6.00;2.70;;;18.50;99.90;;;;;;5012255;28;20494;-52
2023/08/02 03:10:41;;;;;;;4.30;3.00;;;18.60;99.90;;;;;;5012666;28;20942;-52
2023/08/02 03:13:08;;;;;;;7.23;4.10;;;18.10;99.90;;;;;;5012676;28;20490;-54
2023/08/02 03:15:34;;;;;;;6.30;3.10;;;18.30;99.90;;;;;;5012379;28;20435;-52
2023/08/02 03:18:01;;;;;;;3.97;3.00;;;18.60;99.90;;;;;;5012081;28;20439;-52
2023/08/02 03:20:29;;;;;;;6.73;3.50;;;18.00;99.90;;;;;;5012399;28;20425;-52
2023/08/02 03:22:55;;;;;;;4.03;3.17;;;17.60;99.90;;;;;;5012158;28;20462;-53
2023/08/02 03:25:22;;;;;;;4.23;2.20;;;17.80;99.90;;;;;;5012476;28;20951;-52
2023/08/02 03:27:48;;;;;;;4.73;2.70;;;18.20;99.90;;;;;;5012138;28;20743;-55
2023/08/02 03:30:15;;;;;;;5.53;3.13;;;18.30;99.90;;;;;;5012171;28;20803;-53
2023/08/02 03:32:42;;;;;;;4.63;3.10;;;17.90;99.90;;;;;;5012234;28;20468;-52
2023/08/02 03:35:09;;;;;;;3.90;2.83;;;18.20;99.90;;;;;;5012059;28;21008;-54
2023/08/02 03:37:37;;;;;;;5.80;3.20;;;17.80;99.90;;;;;;5011722;28;20435;-54
2023/08/02 03:40:04;;;;;;;4.90;3.30;;;17.20;99.90;;;;;;5012015;28;20443;-52
2023/08/02 03:42:30;;;;;;;6.87;4.10;;;17.90;99.90;;;;;;5012532;28;20474;-52
2023/08/02 03:44:57;;;;;;;8.53;3.20;;;18.20;99.90;;;;;;5012214;28;20447;-53
2023/08/02 03:47:23;;;;;;;5.10;3.00;;;18.30;99.90;;;;;;5011284;28;20435;-52
2023/08/02 03:49:50;;;;;;;9.03;3.40;;;18.10;99.90;;;;;;5012052;28;20415;-52
2023/08/02 03:52:17;;;;;;;5.10;2.60;;;17.90;99.90;;;;;;5011922;28;20483;-54
2023/08/02 03:54:45;;;;;;;6.20;3.50;;;18.40;99.90;;;;;;5011930;28;20485;-53
2023/08/02 03:57:11;;;;;;;6.20;3.70;;;17.90;99.90;;;;;;5011820;28;20438;-52
2023/08/02 03:59:38;;;;;;;10.80;3.70;;;18.50;99.90;;;;;;5012081;28;20931;-54
2023/08/02 04:02:04;;;;;;;7.00;3.50;;;18.40;99.90;;;;;;5012382;28;20434;-53
2023/08/02 04:04:31;;;;;;;5.40;3.00;;;18.50;99.90;;;;;;5012079;28;20786;-55
2023/08/02 04:06:57;;;;;;;5.50;3.83;;;18.30;99.90;;;;;;5011202;28;20451;-53
2023/08/02 04:09:24;;;;;;;5.37;3.67;;;18.40;99.90;;;;;;5012035;28;20449;-53
2023/08/02 04:11:52;;;;;;;5.63;3.77;;;18.50;99.90;;;;;;5011670;28;20851;-53
2023/08/02 04:14:19;;;;;;;4.67;3.00;;;18.60;99.90;;;;;;5012060;28;20481;-52
2023/08/02 04:16:46;;;;;;;6.70;3.43;;;18.60;99.90;;;;;;5011572;28;20773;-54
2023/08/02 04:19:12;;;;;;;5.63;3.70;;;18.50;99.90;;;;;;5011738;28;20443;-53
2023/08/02 04:21:39;;;;;;;5.13;3.70;;;18.50;99.90;;;;;;5011815;28;20966;-52
2023/08/02 04:24:05;;;;;;;4.83;3.87;;;18.50;99.90;;;;;;5012082;28;20443;-55
2023/08/02 04:26:32;;;;;;;7.80;4.00;;;18.70;99.90;;;;;;5011932;28;20439;-54
2023/08/02 04:29:00;;;;;;;4.77;3.60;;;18.50;99.90;;;;;;5011446;28;20443;-54
2023/08/02 04:31:26;;;;;;;4.93;3.40;;;18.70;99.90;;;;;;5011733;28;20437;-52
2023/08/02 04:33:55;;;;;;;6.50;4.20;;;18.50;99.90;;;;;;5011458;28;20529;-53
2023/08/02 04:36:22;;;;;;;14.43;4.17;;;17.90;99.90;;;;;;5011607;28;20434;-55
2023/08/02 04:38:48;;;;;;;5.47;3.60;;;18.70;99.90;;;;;;5011115;28;20455;-55
2023/08/02 04:41:16;;;;;;;5.53;3.53;;;18.70;99.90;;;;;;5011515;28;20828;-53
2023/08/02 04:43:43;;;;;;;6.00;3.50;;;18.70;99.90;;;;;;5011365;28;20540;-53
2023/08/02 04:46:11;;;;;;;4.30;3.07;;;18.30;99.90;;;;;;5010476;28;20451;-52
2023/08/02 04:48:37;;;;;;;7.13;4.17;;;18.60;99.90;;;;;;5011169;28;20418;-54
2023/08/02 04:51:07;;;;;;;6.23;3.77;;;18.80;99.90;;;;;;5011367;28;20440;-52
2023/08/02 04:53:34;;;;;;;9.90;3.67;;;18.50;99.90;;;;;;5010075;28;20506;-52
2023/08/02 04:56:00;;;;;;;7.13;4.00;;;18.70;99.90;;;;;;5011343;28;20440;-52
2023/08/02 04:58:27;;;;;;;5.10;3.53;;;18.90;99.90;;;;;;5011264;28;20444;-53
2023/08/02 05:00:54;;;;;;;5.73;3.40;;;18.10;99.90;;;;;;5014699;28;20436;-52
2023/08/02 05:03:22;;;;;;;8.17;3.17;;;18.90;99.90;;;;;;5014908;28;20437;-55
2023/08/02 05:05:49;;;;;;;6.53;3.40;;;18.90;99.90;;;;;;5014712;28;20432;-54
2023/08/02 05:08:16;;;;;;;6.20;3.80;;;18.70;99.90;;;;;;5014323;28;21037;-52
2023/08/02 05:10:42;;;;;;;4.10;2.90;;;18.90;99.90;;;;;;5014433;28;20432;-52
2023/08/02 05:13:09;;;;;;;5.70;3.33;;;18.90;99.90;;;;;;5014406;28;20958;-53
2023/08/02 05:15:36;;;;;;;8.57;3.60;;;18.90;99.90;;;;;;5014678;28;20494;-52
2023/08/02 05:18:03;;;;;;;5.70;3.93;;;18.90;99.90;;;;;;5014098;28;20440;-54
2023/08/02 05:20:32;;;;;;;7.23;3.40;;;18.50;99.90;;;;;;5014376;28;20428;-54
2023/08/02 05:22:59;;;;;;;9.00;3.47;;;19.00;99.90;;;;;;5014279;28;20455;-54
2023/08/02 05:25:28;;;;;;;6.97;3.87;;;19.00;99.90;;;;;;5014244;28;20447;-54
2023/08/02 05:27:54;;;;;;;6.37;3.60;;;18.80;99.90;;;;;;5014049;28;20499;-52
2023/08/02 05:30:21;;;;;;;5.23;3.73;;;18.90;99.90;;;;;;5013974;28;20822;-53
2023/08/02 05:32:48;;;;;;;5.70;3.50;;;19.10;99.90;;;;;;5013004;28;20479;-54
2023/08/02 05:35:15;;;;;;;4.07;3.10;;;18.60;99.90;;;;;;5013876;28;20503;-53
2023/08/02 05:37:43;;;;;;;5.50;3.50;;;18.80;99.90;;;;;;5013599;28;20463;-54
2023/08/02 05:40:10;;;;;;;5.67;3.30;;;18.80;99.90;;;;;;5013883;28;20422;-56
2023/08/02 05:42:37;;;;;;;7.37;3.23;;;18.80;99.90;;;;;;5013782;28;20471;-53
2023/08/02 05:45:04;;;;;;;11.40;5.00;;;19.10;99.90;;;;;;5013946;28;20432;-55
2023/08/02 05:47:31;;;;;;;6.97;4.03;;;19.00;99.90;;;;;;5013617;28;20432;-54
2023/08/02 05:49:58;;;;;;;4.67;3.30;;;19.00;99.90;;;;;;5012408;28;20448;-53
2023/08/02 05:52:24;;;;;;;4.80;3.27;;;19.50;99.90;;;;;;5011853;28;21006;-52
2023/08/02 05:54:52;;;;;;;7.83;3.30;;;19.10;99.90;;;;;;5013712;28;20459;-53
2023/08/02 05:57:19;;;;;;;6.77;3.00;;;19.30;99.90;;;;;;5013277;28;20443;-54
2023/08/02 05:59:45;;;;;;;5.50;3.27;;;19.60;99.90;;;;;;5013981;28;20764;-53
2023/08/02 06:02:12;;;;;;;5.80;3.80;;;19.30;99.90;;;;;;5013573;28;20468;-55
2023/08/02 06:04:40;;;;;;;5.23;2.97;;;19.50;99.90;;;;;;5013434;28;20436;-54
2023/08/02 06:07:06;;;;;;;7.70;3.57;;;19.90;99.90;;;;;;5012968;28;20813;-53
2023/08/02 06:09:33;;;;;;;7.73;3.10;;;20.00;99.90;;;;;;5013035;28;20440;-54
2023/08/02 06:12:02;;;;;;;4.47;3.00;;;19.80;99.90;;;;;;5013305;28;20482;-54
2023/08/02 06:14:28;;;;;;;6.50;3.70;;;19.80;99.90;;;;;;5013094;28;20470;-55
2023/08/02 06:16:55;;;;;;;3.83;2.50;;;20.20;99.90;;;;;;5012784;28;20407;-54
2023/08/02 06:19:21;;;;;;;4.70;3.07;;;20.30;99.90;;;;;;5013186;28;20447;-53
2023/08/02 06:21:48;;;;;;;5.67;4.47;;;20.40;99.90;;;;;;5013400;28;20455;-53
2023/08/02 06:24:15;;;;;;;8.10;3.00;;;20.40;99.90;;;;;;5013190;28;20438;-54
2023/08/02 06:26:41;;;;;;;7.27;3.03;;;20.50;99.90;;;;;;5012622;28;20429;-53
2023/08/02 06:29:11;;;;;;;4.93;3.20;;;20.50;99.90;;;;;;5013144;28;20433;-53
2023/08/02 06:31:37;;;;;;;6.40;3.77;;;20.50;99.90;;;;;;5012851;28;20465;-54
2023/08/02 06:34:04;;;;;;;4.57;3.20;;;20.50;99.90;;;;;;5011410;28;20469;-53
2023/08/02 06:36:31;;;;;;;7.50;3.40;;;20.70;99.90;;;;;;5012672;28;20494;-55
2023/08/02 06:38:57;;;;;;;6.20;3.43;;;20.70;99.90;;;;;;5011194;28;20448;-53
2023/08/02 06:41:24;;;;;;;5.63;3.20;;;20.80;99.90;;;;;;5012854;28;20823;-53
2023/08/02 06:43:50;;;;;;;4.90;3.07;;;20.80;99.90;;;;;;5012845;28;20440;-54
2023/08/02 06:46:18;;;;;;;12.07;3.87;;;20.70;99.90;;;;;;5012836;28;20929;-55
2023/08/02 06:48:45;;;;;;;5.03;3.07;;;20.70;99.90;;;;;;5012347;28;20438;-55
2023/08/02 06:51:12;;;;;;;3.10;2.53;;;20.60;99.90;;;;;;5012478;28;20477;-55
2023/08/02 06:53:39;;;;;;;8.03;3.80;;;20.60;99.90;;;;;;5012344;28;20438;-54
2023/08/02 06:56:11;;;;;;;6.73;2.97;;;20.60;99.90;;;;;;5012328;28;20467;-54
2023/08/02 06:58:37;;;;;;;4.63;2.70;;;20.60;99.90;;;;;;5012421;28;20419;-55
2023/08/02 07:01:11;;;;;;;8.20;3.40;;;20.60;99.90;;;;;;5012514;28;20430;-54
2023/08/02 07:03:39;;;;;;;5.93;3.53;;;20.60;99.90;;;;;;5012224;28;20445;-53
2023/08/02 07:06:09;;;;;;;4.63;3.43;;;20.60;99.90;;;;;;5012479;28;20435;-53
2023/08/02 07:08:35;;;;;;;4.90;3.37;;;20.60;99.90;;;;;;5012035;28;20470;-53
2023/08/02 07:11:02;;;;;;;6.67;3.53;;;20.70;99.90;;;;;;5012340;28;20422;-52
2023/08/02 07:13:28;;;;;;;4.60;3.00;;;21.10;99.90;;;;;;5012012;28;20822;-55
2023/08/02 07:15:55;;;;;;;7.73;3.17;;;20.90;99.90;;;;;;5012394;28;20493;-53
2023/08/02 07:18:21;;;;;;;4.20;2.67;;;21.00;99.90;;;;;;5011439;28;20442;-55
2023/08/02 07:20:49;;;;;;;4.67;2.90;;;21.00;99.90;;;;;;5012030;28;20446;-53
2023/08/02 07:23:16;;;;;;;9.73;3.07;;;21.00;99.90;;;;;;5011576;28;20459;-53
2023/08/02 07:25:43;;;;;;;8.73;3.00;;;21.10;99.90;;;;;;5012129;28;20439;-54
2023/08/02 07:28:09;;;;;;;7.90;2.63;;;21.00;99.90;;;;;;5011641;28;20938;-55
2023/08/02 07:30:36;;;;;;;5.80;2.80;;;21.00;99.90;;;;;;5011693;28;20459;-56
2023/08/02 07:33:02;;;;;;;2.97;2.27;;;20.80;99.90;;;;;;5011812;28;20782;-54
2023/08/02 07:35:29;;;;;;;5.73;2.73;;;21.10;99.90;;;;;;5011816;28;20483;-54
2023/08/02 07:37:57;;;;;;;4.70;2.77;;;21.10;99.90;;;;;;5011497;28;20431;-54
2023/08/02 07:40:23;;;;;;;5.20;2.90;;;21.20;99.90;;;;;;5011841;28;20498;-54
2023/08/02 07:42:50;;;;;;;12.87;3.70;;;21.60;99.90;;;;;;5011731;28;20482;-55
2023/08/02 07:45:17;;;;;;;5.00;2.57;;;21.10;99.90;;;;;;5011929;28;20420;-53
2023/08/02 07:47:43;;;;;;;6.37;3.10;;;21.30;99.80;;;;;;5011567;28;20458;-53
2023/08/02 07:50:10;;;;;;;4.90;2.80;;;21.40;99.40;;;;;;5010571;28;20448;-55
2023/08/02 07:52:37;;;;;;;6.43;2.57;;;21.50;99.50;;;;;;5011560;28;20455;-54
2023/08/02 07:55:06;;;;;;;4.00;2.43;;;21.60;99.20;;;;;;5011644;28;20475;-53
2023/08/02 07:57:35;;;;;;;4.70;2.70;;;21.80;99.20;;;;;;5011132;28;20467;-55
2023/08/02 08:00:02;;;;;;;4.30;2.40;;;21.90;99.10;;;;;;5011850;28;20447;-53
2023/08/02 08:02:39;;;;;;;5.93;2.70;;;22.10;99.10;;;;;;5011863;28;21050;-54
2023/08/02 08:05:06;;;;;;;4.50;2.50;;;22.20;98.80;;;;;;5011777;28;20443;-53
2023/08/02 08:07:33;;;;;;;7.37;3.40;;;22.30;98.50;;;;;;5011216;28;20433;-54
2023/08/02 08:09:59;;;;;;;5.83;2.37;;;22.40;98.40;;;;;;5011568;28;20798;-53
2023/08/02 08:12:27;;;;;;;3.63;2.00;;;22.50;97.80;;;;;;5011615;28;20458;-54
2023/08/02 08:14:54;;;;;;;2.90;2.10;;;22.50;97.10;;;;;;5011561;28;20477;-53
2023/08/02 08:17:21;;;;;;;3.87;2.77;;;22.50;97.10;;;;;;5011557;28;20567;-53
2023/08/02 08:19:47;;;;;;;4.47;2.17;;;22.60;97.10;;;;;;5010006;28;20552;-54
2023/08/02 08:22:15;;;;;;;6.23;2.33;;;22.50;96.80;;;;;;5011420;28;20454;-54
2023/08/02 08:24:41;;;;;;;3.90;2.30;;;22.50;96.40;;;;;;5012159;28;20500;-54
2023/08/02 08:27:08;;;;;;;4.97;2.47;;;22.50;96.20;;;;;;5011149;28;20442;-53
2023/08/02 08:29:36;;;;;;;3.30;2.20;;;22.50;96.30;;;;;;5011254;28;20532;-53
2023/08/02 08:32:03;;;;;;;6.10;2.77;;;22.50;96.10;;;;;;5011280;28;20975;-54
2023/08/02 08:34:29;;;;;;;3.40;1.80;;;22.60;96.20;;;;;;5014804;28;20436;-56
2023/08/02 08:36:56;;;;;;;6.70;2.47;;;22.60;95.90;;;;;;5014641;28;20430;-54
2023/08/02 08:39:22;;;;;;;4.47;1.80;;;22.70;95.70;;;;;;5015061;28;20938;-53
2023/08/02 08:41:49;;;;;;;4.00;1.83;;;22.70;95.50;;;;;;5015148;28;20468;-54
2023/08/02 08:44:16;;;;;;;4.63;2.30;;;22.80;95.50;;;;;;5014790;28;20442;-55
2023/08/02 08:46:45;;;;;;;5.20;2.30;;;22.80;95.20;;;;;;5014769;28;20438;-55
2023/08/02 08:49:12;;;;;;;4.53;2.10;;;22.80;95.10;;;;;;5014775;28;20445;-56
2023/08/02 08:51:43;;;;;;;4.63;2.20;;;22.80;94.90;;;;;;5014840;28;21007;-53
2023/08/02 08:54:17;;;;;;;3.77;1.87;;;22.80;94.70;;;;;;5014919;28;20437;-54
2023/08/02 08:56:43;;;;;;;4.60;2.00;;;22.80;94.50;;;;;;5014422;28;20489;-53
2023/08/02 08:59:10;;;;;;;6.77;1.70;;;22.70;94.30;;;;;;5014762;28;20430;-55
2023/08/02 09:01:39;;;;;;;4.30;1.87;;;22.70;94.10;;;;;;5014561;28;20481;-54
2023/08/02 09:04:07;;;;;;;4.63;2.23;;;22.80;94.10;;;;;;5014601;28;20441;-53
2023/08/02 09:06:35;;;;;;;4.23;1.60;;;22.90;92.90;;;;;;5014478;28;20929;-58
2023/08/02 09:09:02;;;;;;;4.30;1.77;;;22.90;92.70;;;;;;5014390;28;20497;-54
2023/08/02 09:11:29;;;;;;;3.40;1.90;;;23.40;93.00;;;;;;5014388;28;20447;-54
2023/08/02 09:14:10;;;;;;;2.67;1.40;;;23.00;92.40;;;;;;5013097;28;20452;-53
2023/08/02 09:16:36;;;;;;;6.13;1.57;;;23.00;92.30;;;;;;5014056;28;20552;-55
2023/08/02 09:19:03;;;;;;;3.17;2.00;;;23.10;92.70;;;;;;5014422;28;20911;-55
2023/08/02 09:21:31;;;;;;;3.67;1.97;;;23.30;93.00;;;;;;5014220;28;20443;-55
2023/08/02 09:24:00;;;;;;;3.27;1.63;;;23.40;92.40;;;;;;5014356;28;20436;-53
2023/08/02 09:26:28;;;;;;;4.60;2.10;;;23.40;92.00;;;;;;5014566;28;20497;-54
2023/08/02 09:29:00;;;;;;;6.20;1.60;;;23.50;91.80;;;;;;5013963;28;20445;-55
2023/08/02 09:31:28;;;;;;;5.87;2.30;;;23.60;91.50;;;;;;5014251;28;20501;-53
2023/08/02 09:33:56;;;;;;;5.70;2.10;;;23.60;91.40;;;;;;5014222;28;20436;-54
2023/08/02 09:36:24;;;;;;;2.93;1.50;;;23.60;91.30;;;;;;5013862;28;20490;-54
2023/08/02 09:39:02;;;;;;;3.90;2.10;;;23.60;91.10;;;;;;5013504;28;20434;-53
2023/08/02 09:41:29;;;;;;;3.77;1.97;;;23.60;91.30;;;;;;5013726;28;20439;-56
2023/08/02 09:43:56;;;;;;;3.57;1.87;;;23.60;91.40;;;;;;5014286;28;20443;-56
2023/08/02 09:46:26;;;;;;;3.93;1.97;;;23.60;91.00;;;;;;5013477;28;20549;-57
2023/08/02 09:48:53;;;;;;;3.50;2.17;;;23.50;90.70;;;;;;5013523;28;20547;-57
2023/08/02 09:51:20;;;;;;;5.20;3.10;;;23.50;90.60;;;;;;5013582;28;20439;-56
2023/08/02 09:54:05;;;;;;;4.73;2.33;;;23.50;90.80;;;;;;5012353;28;20435;-56
2023/08/02 09:56:35;;;;;;;3.70;1.97;;;23.60;90.90;;;;;;5013496;28;20487;-56
2023/08/02 09:59:03;;;;;;;4.67;1.80;;;23.50;91.10;;;;;;5011858;28;20447;-57
2023/08/02 10:01:31;;;;;;;5.40;1.80;;;23.50;91.20;;;;;;5013190;28;21010;-60
2023/08/02 10:03:59;;;;;;;3.70;1.83;;;23.60;91.20;;;;;;5013406;28;20432;-56
2023/08/02 10:06:30;;;;;;;5.87;2.20;;;23.70;91.10;;;;;;5013345;28;20455;-56
2023/08/02 10:09:02;;;;;;;3.33;1.83;;;23.50;90.90;;;;;;5013460;28;20489;-56
2023/08/02 10:11:32;;;;;;;4.40;2.60;;;23.80;91.00;;;;;;5013209;28;20758;-56
2023/08/02 10:14:00;;;;;;;5.93;2.30;;;23.80;91.10;;;;;;5013521;28;20454;-57
2023/08/02 10:16:28;;;;;;;3.27;1.80;;;23.80;91.10;;;;;;5013359;28;20843;-56
2023/08/02 10:18:55;;;;;;;4.13;2.03;;;23.80;91.30;;;;;;5012783;28;20436;-57
2023/08/02 10:21:22;;;;;;;7.40;2.20;;;23.80;91.50;;;;;;5013208;28;20432;-57
2023/08/02 10:23:50;;;;;;;8.87;2.30;;;23.90;91.60;;;;;;5013169;28;20436;-57
2023/08/02 10:26:18;;;;;;;9.33;2.00;;;24.10;91.60;;;;;;5013251;28;20437;-58
2023/08/02 10:28:46;;;;;;;2.57;1.77;;;24.10;91.50;;;;;;5013182;28;20436;-57
2023/08/02 10:31:14;;;;;;;3.90;2.13;;;24.20;91.60;;;;;;5015934;28;20456;-57
2023/08/02 10:33:40;;;;;;;2.87;1.70;;;24.30;91.70;;;;;;5019665;28;20440;-57
2023/08/02 10:36:08;;;;;;;6.17;2.07;;;24.40;91.80;;;;;;5013052;28;20514;-56
2023/08/02 10:38:52;;;;;;;2.97;2.50;;;24.50;91.60;;;;;;5012806;28;20444;-57
2023/08/02 10:41:21;;;;;;;3.83;2.00;;;24.70;91.10;;;;;;5011541;28;20527;-56
2023/08/02 10:44:11;;;;;;;6.50;1.67;;;24.70;91.20;;;;;;5012631;28;20452;-56
2023/08/02 10:46:38;;;;;;;7.77;2.50;;;24.90;90.70;;;;;;5012630;28;20431;-56
2023/08/02 10:49:39;;;;;;;2.83;1.40;;;24.90;90.90;;;;;;5012682;28;20429;-57
2023/08/02 10:52:28;;;;;;;4.07;1.70;;;25.10;91.00;;;;;;4954879;28;20845;-59
2023/08/02 10:55:22;;;;;;;2.73;1.10;;;25.20;90.80;;;;;;4971454;28;20866;-56
2023/08/02 10:58:08;;;;;;;2.80;1.50;;;25.10;90.80;;;;;;4936655;28;20446;-56
2023/08/02 11:00:38;;;;;;;3.77;1.53;;;24.90;90.80;;;;;;4971192;28;20600;-56
2023/08/02 11:03:05;;;;;;;4.73;2.33;;;24.90;91.10;;;;;;4974305;28;20458;-58
2023/08/02 11:05:42;;;;;;;3.40;1.73;;;25.10;91.20;;;;;;4954703;28;20481;-57
2023/08/02 11:08:10;;;;;;;5.47;2.20;;;25.20;90.90;;;;;;4970496;28;20436;-56
2023/08/02 11:10:54;;;;;;;5.27;3.03;;;25.20;90.90;;;;;;4970873;28;20438;-56
2023/08/02 11:13:22;;;;;;;6.00;2.93;;;25.20;90.60;;;;;;4970637;28;20859;-58
2023/08/02 11:16:00;;;;;;;8.40;2.50;;;25.20;90.70;;;;;;4970471;28;20585;-57
2023/08/02 11:18:26;;;;;;;3.30;1.73;;;25.10;90.30;;;;;;4970386;28;20966;-57
2023/08/02 11:20:53;;;;;;;3.97;2.30;;;25.00;90.50;;;;;;4970795;28;20438;-56
2023/08/02 11:23:23;;;;;;;5.13;2.27;;;25.00;90.50;;;;;;5000250;28;20448;-57
2023/08/02 11:25:50;;;;;;;2.97;2.37;;;25.00;90.60;;;;;;5013784;28;20427;-57
2023/08/02 11:28:17;;;;;;;4.47;1.90;;;24.90;90.70;;;;;;5011882;28;20436;-57
2023/08/02 11:30:49;;;;;;;4.00;2.57;;;24.90;90.70;;;;;;5012059;28;20507;-56
2023/08/02 11:33:17;;;;;;;4.03;2.83;;;24.80;90.80;;;;;;5012062;28;20455;-56
2023/08/02 11:35:44;;;;;;;3.10;2.30;;;24.80;90.90;;;;;;5011833;28;20483;-57
2023/08/02 11:38:12;;;;;;;4.77;3.23;;;24.80;91.00;;;;;;5011680;28;20849;-56
2023/08/02 11:40:39;;;;;;;3.70;2.60;;;24.80;91.00;;;;;;5011895;28;20428;-57
2023/08/02 11:43:09;;;;;;;4.43;2.17;;;24.90;91.10;;;;;;5011776;28;20475;-57
2023/08/02 11:45:36;;;;;;;4.10;2.30;;;25.00;91.20;;;;;;5011849;28;20450;-56
2023/08/02 11:48:04;;;;;;;6.40;3.37;;;25.10;91.20;;;;;;5011468;28;20436;-57
2023/08/02 11:50:32;;;;;;;3.50;3.00;;;25.10;91.20;;;;;;5011932;28;20436;-57
2023/08/02 11:53:06;;;;;;;4.17;2.67;;;25.10;91.10;;;;;;5011647;28;20503;-57
2023/08/02 11:55:35;;;;;;;3.27;2.90;;;25.10;91.00;;;;;;5011807;28;20933;-57
2023/08/02 11:58:03;;;;;;;4.17;2.93;;;25.10;91.10;;;;;;5011398;28;20440;-56
2023/08/02 12:00:31;;;;;;;5.07;2.90;;;25.10;90.90;;;;;;5011716;28;20466;-56
2023/08/02 12:03:09;;;;;;;4.20;2.73;;;25.10;90.70;;;;;;5011360;28;20778;-57
2023/08/02 12:05:36;;;;;;;4.53;2.60;;;25.20;90.50;;;;;;5011685;28;20467;-57
2023/08/02 12:08:11;;;;;;;5.07;3.10;;;25.20;90.50;;;;;;5012333;28;20436;-57
2023/08/02 12:10:39;;;;;;;2.70;2.00;;;25.30;90.20;;;;;;5015656;28;20436;-57
2023/08/02 12:13:10;;;;;;;3.90;3.10;;;25.30;90.20;;;;;;5015807;28;20451;-57
2023/08/02 12:15:37;;;;;;;2.90;2.27;;;25.30;89.90;;;;;;5015435;28;20528;-56
2023/08/02 12:18:05;;;;;;;6.77;2.47;;;25.40;90.00;;;;;;5014899;28;20810;-57
2023/08/02 12:20:32;;;;;;;5.00;2.87;;;25.40;89.40;;;;;;5014104;28;20943;-56
2023/08/02 12:23:00;;;;;;;4.50;2.20;;;25.50;89.30;;;;;;5015296;28;20459;-56
2023/08/02 12:25:41;;;;;;;5.10;3.10;;;25.60;89.00;;;;;;5027092;28;20440;-56
2023/08/02 12:28:09;;;;;;;4.50;2.50;;;25.70;88.80;;;;;;5016348;28;20402;-56
2023/08/02 12:30:35;;;;;;;3.13;2.70;;;25.80;88.30;;;;;;5014966;28;20456;-57
2023/08/02 12:33:02;;;;;;;3.57;2.10;;;25.90;88.30;;;;;;5015371;28;20556;-56
2023/08/02 12:35:29;;;;;;;5.50;2.83;;;25.90;87.80;;;;;;5015076;28;20795;-56
2023/08/02 12:37:55;;;;;;;6.40;2.87;;;25.90;86.50;;;;;;5014657;28;20520;-57
2023/08/02 12:40:23;;;;;;;3.50;2.50;;;25.90;85.40;;;;;;5014867;28;20438;-58
2023/08/02 12:42:50;;;;;;;5.13;2.30;;;25.80;85.10;;;;;;5014536;28;20478;-56
2023/08/02 12:45:16;;;;;;;4.40;2.30;;;25.80;84.80;;;;;;5014504;28;20447;-56
2023/08/02 12:47:43;;;;;;;3.80;2.87;;;25.80;84.30;;;;;;5014214;28;20819;-56
2023/08/02 12:50:10;;;;;;;3.90;3.37;;;25.80;84.10;;;;;;5014571;28;20436;-56